CheckWX is a tool to help pilots better visualize weather data.  It is not intended as a substitute for an official pre-flight weather briefing.

22:31:26 UTC

KOSH METAR
Wittman Regional Airport
Oshkosh, Wisconsin, USA
Current

38 mins ago

KOSH 222153Z 22004KT 10SM CLR M01/M07 A3011 RMK AO2 SLP211 T10061067
Observed
Nov-22 @ 21:53 UTC
Wind
  • 220° at 4 KTS
Visibility
10 SM
Flight Rules
VFR
Cloud Levels
  • Clear skies
Temperature
-1°C / 30°F
Dewpoint
-7°C / 19°F
Humidity
64%
Altimeter
30.11" Hg
Pressure
1019.62 hPa
Previous

2 hours ago

KOSH 222053Z VRB05KT 10SM CLR 00/M06 A3011 RMK AO2 SLP211 T00001061 56017
Observed
Nov-22 @ 20:53 UTC
Wind
  • Variable at 5 KTS
Visibility
10 SM
Flight Rules
VFR
Cloud Levels
  • Clear skies
Temperature
C / 32°F
Dewpoint
-6°C / 21°F
Humidity
64%
Altimeter
30.11" Hg
Pressure
1019.62 hPa
Previous

3 hours ago

KOSH 221953Z 25005KT 10SM CLR M01/M07 A3013 RMK AO2 SLP218 T10061067
Observed
Nov-22 @ 19:53 UTC
Wind
  • 250° at 5 KTS
Visibility
10 SM
Flight Rules
VFR
Cloud Levels
  • Clear skies
Temperature
-1°C / 30°F
Dewpoint
-7°C / 19°F
Humidity
64%
Altimeter
30.13" Hg
Pressure
1020.32 hPa